La Crosse, Florida
Current Conditions -  °F | °C
As of 6:53 PM on Wednesday 22 Oct 2014 (Local Time) from KGNV Reporting Station
Clear Clear  
Wind Chill: 70°   Ceiling: Unl
Heat Index: 70°   Visibility: 10mi
Dew Point: 51°   Wind: 7mph
Humidity: 51%   Direction: 10°N
Pressure: 29.99"   Gusts: NA
Location:  29.84°N, 82.4°W
Report Text: KGNV 222253Z 01006KT 10SM CLR 21/11 A2999 RMK AO2 SLP153 T02110106
Loading
Personal Weather Stations






























Interactive Weather Map
Tropical Storm Tracking
New forecast layout! Learn more

10-Day Weather Forecast

Advertisements
Track Severe Weather on mobile